Glovertown, Canada
Current Conditions -  °F | °C
As of 1:00 PM on Sunday 23 Nov 2014 (Local Time) from CYQX Reporting Station
Overcast Overcast  
Wind Chill: 24°   Ceiling: 6800
Heat Index: 34°   Visibility: 20mi
Dew Point: 25°   Wind: 16mph
Humidity: 70%   Direction: 240°WSW
Pressure: 29.61"   Gusts: 24mph
Location:  48.67°N, 54.05°W
Report Text: CYQX 231600Z 24014G21KT 20SM SCT025 OVC068 01/M04 A2961 RMK SC3AC5 SLP033
Loading
Personal Weather Stations






























Interactive Weather Map New forecast layout! Learn more

10-Day Weather Forecast

Advertisements
Track Severe Weather on mobile